Time;durP1;ratioP1;P1;durP2;ratioP2;P2;SDS_P1;SDS_P2;PMS_P1;PMS_P2;Temp;Humidity;BMP_temperature;BMP_pressure;BME280_temperature;BME280_humidity;BME280_pressure;Samples;Min_cycle;Max_cycle;Signal;HPM_P1;HPM_P2
2022/05/25 00:03:56;;;;;;;5.90;5.30;;;;;;;14.20;80.10;98972.06;442378;1269;141716;-52
2022/05/25 00:13:59;;;;;;;8.00;6.10;;;;;;;14.21;80.26;98978.69;429089;1271;141685;-54
2022/05/25 00:24:02;;;;;;;6.50;5.90;;;;;;;14.19;80.47;98979.02;432278;1271;142014;-54
2022/05/25 00:34:05;;;;;;;5.00;4.60;;;;;;;14.20;80.52;98985.09;447477;1270;142561;-56
2022/05/25 00:44:08;;;;;;;6.00;5.40;;;;;;;14.11;80.68;98977.59;437897;1271;146751;-55
2022/05/25 00:54:15;;;;;;;4.80;4.40;;;;;;;14.15;80.92;98988.02;445631;1270;141694;-52
2022/05/25 01:04:18;;;;;;;5.20;4.80;;;;;;;14.26;81.03;98987.52;445365;1271;142014;-54
2022/05/25 01:14:31;;;;;;;4.60;4.20;;;;;;;14.35;81.05;98994.10;446751;1270;142722;-56
2022/05/25 01:24:44;;;;;;;5.40;4.90;;;;;;;14.46;80.98;98995.41;440676;1269;142884;-53
2022/05/25 01:34:54;;;;;;;6.60;4.80;;;;;;;14.53;81.02;99000.26;440221;1270;141697;-55
2022/05/25 01:45:02;;;;;;;7.00;4.90;;;;;;;14.54;80.96;99013.75;444152;1270;142924;-58
2022/05/25 01:55:08;;;;;;;5.70;5.20;;;;;;;14.52;80.84;99033.16;445650;1269;141600;-55
2022/05/25 02:05:15;;;;;;;6.00;5.50;;;;;;;14.47;81.00;99032.20;446790;1270;145350;-55
2022/05/25 02:15:27;;;;;;;6.60;6.00;;;;;;;14.42;81.00;99030.27;443301;1270;141684;-53
2022/05/25 02:25:38;;;;;;;7.60;7.00;;;;;;;14.34;81.31;99038.94;446137;1271;141598;-53
2022/05/25 02:35:43;;;;;;;8.50;7.70;;;;;;;14.25;81.79;99037.77;447572;1270;145024;-56
2022/05/25 02:45:46;;;;;;;9.40;8.50;;;;;;;14.25;81.95;99035.19;447535;1270;141816;-55
2022/05/25 02:55:49;;;;;;;10.90;9.90;;;;;;;14.27;82.20;99032.17;440909;1271;142447;-54
2022/05/25 03:05:52;;;;;;;11.60;10.60;;;;;;;14.32;82.52;99043.74;444717;1271;142202;-56
2022/05/25 03:15:58;;;;;;;12.40;11.30;;;;;;;14.43;82.79;99045.52;438745;1270;142385;-54
2022/05/25 03:26:01;;;;;;;13.50;12.20;;;;;;;14.60;83.01;99063.41;429674;1271;142187;-56
2022/05/25 03:36:05;;;;;;;15.60;14.10;;;;;;;14.91;82.99;99073.23;429969;1271;141980;-55
2022/05/25 03:46:08;;;;;;;16.50;14.90;;;;;;;15.12;82.84;99072.16;431117;1269;141806;-52
2022/05/25 03:56:11;;;;;;;16.40;14.80;;;;;;;15.41;82.33;99073.93;429476;1271;142206;-54
2022/05/25 04:06:14;;;;;;;17.10;15.60;;;;;;;16.27;81.56;99077.11;431243;1270;193697;-54
2022/05/25 04:16:17;;;;;;;13.60;12.40;;;;;;;16.65;79.41;99079.46;431396;1271;143998;-54
2022/05/25 04:26:20;;;;;;;12.20;10.90;;;;;;;16.91;78.63;99076.48;431724;1270;143011;-56
2022/05/25 04:36:23;;;;;;;11.90;10.80;;;;;;;17.92;76.74;99078.23;431820;1270;142481;-54
2022/05/25 04:46:28;;;;;;;9.30;8.40;;;;;;;19.45;73.81;99087.35;434995;1271;146801;-54
2022/05/25 05:06:52;;;;;;;8.30;7.60;;;;;;;20.08;69.04;99089.58;435762;1270;141843;-54
2022/05/25 05:16:57;;;;;;;7.40;6.80;;;;;;;20.02;68.33;99081.14;433953;1270;141072;-55
2022/05/25 05:27:01;;;;;;;7.30;6.60;;;;;;;20.65;66.06;99082.61;430067;1271;143095;-56
2022/05/25 05:37:11;;;;;;;7.10;6.60;;;;;;;19.67;65.62;99078.93;433870;1271;141705;-54
2022/05/25 05:47:22;;;;;;;8.50;7.40;;;;;;;18.69;66.53;99089.96;431542;1270;143140;-53
2022/05/25 05:57:25;;;;;;;9.10;7.50;;;;;;;18.08;67.13;99106.15;430336;1270;141894;-54
2022/05/25 06:07:28;;;;;;;7.60;7.00;;;;;;;17.43;68.02;99110.98;430325;1269;142849;-53
2022/05/25 06:27:58;;;;;;;6.70;5.40;;;;;;;17.55;67.91;99108.48;432576;1271;144399;-56
2022/05/25 06:38:02;;;;;;;9.00;6.50;;;;;;;17.55;67.44;99116.63;433200;1271;142631;-60
2022/05/25 06:48:07;;;;;;;8.10;7.30;;;;;;;17.47;68.09;99128.80;431689;1271;141396;-59
2022/05/25 06:58:10;;;;;;;8.10;7.30;;;;;;;17.39;68.20;99145.33;435225;1271;141005;-60
2022/05/25 07:08:13;;;;;;;9.50;7.50;;;;;;;17.27;68.35;99169.67;432659;1270;142375;-59
2022/05/25 07:18:16;;;;;;;9.70;7.00;;;;;;;16.82;68.67;99190.77;430620;1270;146388;-58
2022/05/25 07:28:20;;;;;;;7.10;5.20;;;;;;;16.30;69.69;99204.91;431602;1270;142125;-57
2022/05/25 07:38:23;;;;;;;6.50;5.70;;;;;;;16.08;69.91;99204.23;433101;1270;142244;-58
2022/05/25 07:48:26;;;;;;;6.20;5.40;;;;;;;15.90;69.73;99215.13;438069;1270;141614;-58
2022/05/25 07:58:29;;;;;;;6.10;5.50;;;;;;;15.49;70.01;99232.89;435906;1270;146954;-57
2022/05/25 08:08:32;;;;;;;5.90;5.40;;;;;;;15.44;70.82;99253.64;442716;1270;142851;-59
2022/05/25 08:18:36;;;;;;;7.00;6.30;;;;;;;15.59;71.05;99260.60;441861;1270;141704;-57
2022/05/25 08:28:39;;;;;;;6.00;5.50;;;;;;;15.71;71.22;99266.40;437709;1271;227140;-60
2022/05/25 08:38:42;;;;;;;5.60;5.10;;;;;;;15.53;70.92;99277.86;437488;1270;145776;-58
2022/05/25 08:48:46;;;;;;;6.20;5.60;;;;;;;15.27;71.18;99287.71;447473;1271;142313;-59
2022/05/25 08:59:14;;;;;;;8.90;6.50;;;;;;;15.09;71.45;99299.16;440291;1270;142677;-61
2022/05/25 09:09:24;;;;;;;7.60;6.70;;;;;;;14.95;72.06;99312.85;440546;1270;142430;-60
2022/05/25 09:19:31;;;;;;;5.80;5.10;;;;;;;14.78;72.38;99325.80;445408;1270;143611;-58
2022/05/25 09:29:34;;;;;;;3.20;2.60;;;;;;;14.39;72.06;99359.64;433910;1270;142713;-59
2022/05/25 09:39:43;;;;;;;3.40;3.10;;;;;;;13.68;72.45;99387.45;445657;1271;143535;-58
2022/05/25 09:49:49;;;;;;;5.10;3.40;;;;;;;13.40;73.62;99381.55;444290;1270;141054;-62
2022/05/25 10:00:00;;;;;;;3.70;3.40;;;;;;;13.42;74.31;99386.25;446284;1269;145078;-59
2022/05/25 10:10:08;;;;;;;6.30;4.10;;;;;;;13.45;74.73;99395.03;434727;1270;141184;-60
2022/05/25 10:20:24;;;;;;;6.50;5.10;;;;;;;13.51;75.22;99395.27;441308;1270;142029;-62
2022/05/25 10:40:52;;;;;;;5.60;3.90;;;;;;;14.15;74.76;99386.66;446717;1271;143614;-61
2022/05/25 10:51:02;;;;;;;3.90;3.60;;;;;;;14.55;74.13;99374.94;447660;1270;142081;-61
2022/05/25 11:01:34;;;;;;;3.60;2.20;;;;;;;14.83;73.00;99370.11;439634;1271;141134;-60
2022/05/25 11:11:46;;;;;;;2.10;1.90;;;;;;;14.90;72.07;99355.07;447673;1269;143986;-61
2022/05/25 11:22:03;;;;;;;3.80;1.80;;;;;;;14.85;71.55;99334.02;447622;1270;141304;-59
2022/05/25 11:32:20;;;;;;;3.70;2.60;;;;;;;14.69;71.38;99321.23;439743;1270;142070;-60
2022/05/25 11:42:49;;;;;;;4.70;2.30;;;;;;;14.83;71.46;99309.73;441990;1271;142416;-63
2022/05/25 11:53:18;;;;;;;5.40;2.10;;;;;;;15.11;70.90;99302.35;437892;1270;144276;-60
2022/05/25 12:04:05;;;;;;;5.20;2.00;;;;;;;15.53;70.26;99286.13;435976;1270;141593;-59
2022/05/25 12:14:34;;;;;;;2.10;2.00;;;;;;;15.92;69.24;99279.72;433428;1271;141248;-56
2022/05/25 12:24:40;;;;;;;2.50;1.80;;;;;;;16.05;68.18;99288.77;433364;1270;141837;-52
2022/05/25 12:34:46;;;;;;;3.10;1.80;;;;;;;15.76;68.17;99315.55;437309;1270;142071;-52
2022/05/25 12:55:29;;;;;;;2.40;2.20;;;;;;;15.20;69.23;99333.16;447529;1270;142279;-62
2022/05/25 13:05:55;;;;;;;5.00;2.50;;;;;;;15.09;69.14;99330.36;447000;1270;142777;-59
2022/05/25 13:16:00;;;;;;;2.30;2.10;;;;;;;14.90;69.76;99324.05;435066;1270;142723;-61
2022/05/25 13:26:06;;;;;;;4.00;2.40;;;;;;;14.84;69.79;99324.38;432996;1270;142698;-58
2022/05/25 13:36:16;;;;;;;4.60;2.70;;;;;;;15.03;70.09;99332.86;431967;1270;200336;-57
2022/05/25 13:46:48;;;;;;;4.60;3.00;;;;;;;15.34;69.36;99317.94;435089;1269;141796;-57
2022/05/25 13:56:52;;;;;;;2.90;2.40;;;;;;;15.68;68.81;99316.08;431399;1271;142616;-57
2022/05/25 14:06:55;;;;;;;4.20;2.10;;;;;;;15.94;68.14;99331.53;438269;1270;142621;-57
2022/05/25 14:17:00;;;;;;;3.00;2.40;;;;;;;16.04;67.86;99333.13;430990;1271;160636;-56
2022/05/25 14:27:12;;;;;;;4.00;2.90;;;;;;;15.88;68.56;99349.02;433133;1271;197969;-56
2022/05/25 14:37:17;;;;;;;3.50;2.50;;;;;;;15.84;69.47;99350.65;432872;1270;141926;-59
2022/05/25 14:47:29;;;;;;;3.10;2.40;;;;;;;15.89;69.45;99360.73;431143;1271;141892;-58
2022/05/25 14:57:33;;;;;;;3.50;2.30;;;;;;;15.85;69.50;99375.41;437821;1270;142828;-57
2022/05/25 15:07:36;;;;;;;4.80;3.80;;;;;;;15.89;69.33;99373.87;432478;1271;142060;-57
2022/05/25 15:28:05;;;;;;;4.50;2.70;;;;;;;16.09;69.96;99372.65;431655;1271;141923;-57
2022/05/25 15:38:09;;;;;;;3.40;2.70;;;;;;;16.18;69.81;99377.06;433156;1271;141754;-59
2022/05/25 15:48:15;;;;;;;3.30;2.90;;;;;;;16.05;69.61;99374.38;432519;1271;142154;-57
2022/05/25 15:58:18;;;;;;;5.30;3.50;;;;;;;15.90;69.67;99378.71;433171;1271;142847;-57
2022/05/25 16:18:43;;;;;;;3.30;3.00;;;;;;;15.58;70.71;99367.52;431428;1271;154790;-58
2022/05/25 16:28:49;;;;;;;6.20;3.00;;;;;;;15.44;71.41;99362.60;432173;1271;141886;-57
2022/05/25 16:38:53;;;;;;;4.90;3.10;;;;;;;15.28;71.85;99376.17;433652;1271;143624;-57
2022/05/25 16:48:56;;;;;;;3.40;3.10;;;;;;;15.16;72.16;99384.79;431067;1271;142652;-57
2022/05/25 16:58:59;;;;;;;4.30;3.90;;;;;;;15.11;72.41;99394.34;429717;1271;141666;-59
2022/05/25 17:09:02;;;;;;;4.60;4.20;;;;;;;15.05;72.66;99391.67;430957;1271;142567;-59
2022/05/25 17:29:28;;;;;;;5.70;4.80;;;;;;;15.17;72.69;99397.73;431511;1271;141881;-59
2022/05/25 17:49:54;;;;;;;5.20;4.70;;;;;;;14.99;73.30;99401.95;429444;1271;144495;-56
2022/05/25 17:59:57;;;;;;;5.30;4.80;;;;;;;14.82;73.52;99398.17;431116;1271;142424;-55
2022/05/25 18:10:02;;;;;;;5.50;5.00;;;;;;;14.79;74.49;99403.34;431744;1270;142014;-57
2022/05/25 18:20:08;;;;;;;5.40;5.00;;;;;;;15.49;73.05;99396.91;432716;1271;145416;-56
2022/05/25 18:30:15;;;;;;;6.00;5.30;;;;;;;14.68;73.45;99400.96;431874;1271;142095;-55
2022/05/25 18:40:18;;;;;;;6.60;6.00;;;;;;;13.99;74.45;99408.57;430498;1271;141605;-57
2022/05/25 18:50:28;;;;;;;6.70;6.00;;;;;;;13.40;75.38;99421.80;433536;1271;142330;-55
2022/05/25 19:00:31;;;;;;;6.70;5.90;;;;;;;12.91;76.38;99432.37;433097;1270;142060;-55
2022/05/25 19:10:35;;;;;;;6.90;6.10;;;;;;;12.51;77.10;99432.05;433581;1271;141376;-59
2022/05/25 19:20:38;;;;;;;10.10;8.80;;;;;;;12.15;77.85;99432.04;430527;1271;141815;-59
2022/05/25 19:30:42;;;;;;;11.60;10.50;;;;;;;11.82;78.65;99440.87;430250;1271;142051;-57
2022/05/25 19:40:48;;;;;;;13.00;11.60;;;;;;;11.50;79.34;99446.98;429419;1271;141298;-62
2022/05/25 19:50:54;;;;;;;12.30;10.30;;;;;;;11.24;79.98;99460.48;438037;1270;142153;-67
2022/05/25 20:00:57;;;;;;;21.60;16.00;;;;;;;11.02;80.40;99462.68;430459;1271;142681;-66
2022/05/25 20:11:00;;;;;;;20.90;16.90;;;;;;;10.76;80.75;99470.34;431866;1271;142682;-62
2022/05/25 20:21:03;;;;;;;21.60;18.10;;;;;;;10.56;81.17;99475.16;431233;1270;145327;-68
2022/05/25 20:31:07;;;;;;;16.10;14.20;;;;;;;10.38;81.97;99474.69;430731;1271;659764;-68
2022/05/25 20:41:10;;;;;;;13.90;12.00;;;;;;;10.35;82.94;99480.16;431082;1271;142748;-65
2022/05/25 20:51:16;;;;;;;12.70;11.40;;;;;;;10.24;83.32;99477.04;431265;1271;143256;-67
2022/05/25 21:01:20;;;;;;;10.70;9.70;;;;;;;10.23;84.17;99490.02;432766;1270;141606;-67
2022/05/25 21:11:24;;;;;;;12.80;11.40;;;;;;;10.21;84.57;99496.98;431015;1271;141511;-65
2022/05/25 21:21:27;;;;;;;12.00;10.90;;;;;;;10.13;84.88;99503.63;431364;1271;142700;-57
2022/05/25 21:41:53;;;;;;;12.50;11.50;;;;;;;10.14;86.01;99513.14;431275;1270;141899;-57
2022/05/25 21:51:57;;;;;;;12.50;11.40;;;;;;;10.40;86.60;99518.33;437727;1268;141969;-58
2022/05/25 22:02:00;;;;;;;10.70;9.60;;;;;;;10.74;86.77;99513.19;434808;1270;143191;-60
2022/05/25 22:12:06;;;;;;;11.80;10.80;;;;;;;10.78;86.20;99505.08;431311;1269;141751;-61
2022/05/25 22:22:09;;;;;;;12.30;11.20;;;;;;;10.84;86.37;99503.09;442556;1270;142083;-59
2022/05/25 22:32:12;;;;;;;12.30;11.20;;;;;;;10.99;86.51;99501.58;430425;1270;142226;-59
2022/05/25 22:42:15;;;;;;;13.80;12.70;;;;;;;11.17;86.81;99513.33;431104;1271;141981;-58
2022/05/25 22:52:18;;;;;;;12.80;11.70;;;;;;;11.35;86.66;99504.91;431389;1271;141801;-58
2022/05/25 23:02:22;;;;;;;12.30;11.00;;;;;;;11.43;86.39;99495.64;432316;1270;144578;-58
2022/05/25 23:12:25;;;;;;;13.10;11.90;;;;;;;11.32;86.22;99495.84;430785;1270;142427;-57
2022/05/25 23:22:28;;;;;;;14.30;13.10;;;;;;;11.36;86.41;99491.58;430803;1270;142818;-57
2022/05/25 23:32:31;;;;;;;15.20;13.90;;;;;;;11.48;86.49;99492.15;429856;1270;142193;-57
2022/05/25 23:52:56;;;;;;;13.70;12.60;;;;;;;11.11;85.86;99483.40;436134;1270;142356;-56
